Time;durP1;ratioP1;P1;durP2;ratioP2;P2;SDS_P1;SDS_P2;PMS_P1;PMS_P2;Temp;Humidity;BMP_temperature;BMP_pressure;BME280_temperature;BME280_humidity;BME280_pressure;Samples;Min_cycle;Max_cycle;Signal;HPM_P1;HPM_P2
2022/12/12 07:52:21;;;;;;;5.37;3.57;;;-10.10;99.90;;;;;;5137514;27;20271;-82
2022/12/12 07:54:46;;;;;;;10.93;4.03;;;-10.10;99.90;;;;;;5138963;28;20447;-82
2022/12/12 07:57:12;;;;;;;6.93;3.77;;;-10.10;99.90;;;;;;5138984;27;20155;-82
2022/12/12 07:59:38;;;;;;;4.27;3.00;;;-10.00;99.90;;;;;;5137698;27;20210;-82
2022/12/12 08:02:04;;;;;;;3.97;2.13;;;-9.90;99.90;;;;;;5136134;28;20602;-82
2022/12/12 08:04:29;;;;;;;3.00;2.47;;;-9.70;99.90;;;;;;5136374;28;20275;-82
2022/12/12 08:06:56;;;;;;;2.70;2.47;;;-9.70;99.90;;;;;;5137473;27;20186;-82
2022/12/12 08:09:22;;;;;;;8.23;3.53;;;-9.70;99.90;;;;;;5135508;28;20183;-82
2022/12/12 08:11:48;;;;;;;5.37;3.13;;;-9.60;99.90;;;;;;5136304;28;20464;-82
2022/12/12 08:14:14;;;;;;;5.53;3.53;;;-9.40;99.90;;;;;;5136435;28;20416;-82
2022/12/12 08:16:40;;;;;;;9.77;5.27;;;-8.80;99.90;;;;;;5136681;28;20206;-82
2022/12/12 08:19:05;;;;;;;8.77;4.37;;;-8.20;99.90;;;;;;5137540;27;20571;-82
2022/12/12 08:21:31;;;;;;;5.97;3.53;;;-7.60;99.90;;;;;;5137834;27;20656;-82
2022/12/12 08:23:58;;;;;;;6.37;3.47;;;-7.30;99.90;;;;;;5136204;28;20317;-83
2022/12/12 08:26:27;;;;;;;7.13;4.50;;;-7.00;99.90;;;;;;5136419;28;20721;-82
2022/12/12 08:28:54;;;;;;;6.27;3.63;;;-6.70;99.90;;;;;;5136103;28;20413;-82
2022/12/12 08:31:20;;;;;;;10.23;4.03;;;-6.60;99.90;;;;;;5138772;27;20447;-83
2022/12/12 08:33:46;;;;;;;5.33;3.77;;;-6.60;99.90;;;;;;5137779;28;20424;-83
2022/12/12 08:36:21;;;;;;;8.43;3.90;;;-6.50;99.90;;;;;;5138855;27;20458;-82
2022/12/12 08:38:47;;;;;;;8.63;4.60;;;-6.30;99.90;;;;;;5136706;28;20478;-83
2022/12/12 08:41:13;;;;;;;6.27;4.93;;;-6.10;99.90;;;;;;5136926;28;20891;-83
2022/12/12 08:43:41;;;;;;;5.87;4.00;;;-6.30;99.90;;;;;;5138907;28;20425;-83
2022/12/12 08:46:08;;;;;;;5.50;3.80;;;-6.20;99.90;;;;;;5140279;27;20438;-83
2022/12/12 08:48:34;;;;;;;5.60;3.90;;;-6.50;99.90;;;;;;5138984;28;20786;-83
2022/12/12 08:51:00;;;;;;;6.77;4.40;;;-6.20;99.90;;;;;;5139268;27;20460;-83
2022/12/12 08:53:26;;;;;;;6.33;4.43;;;-5.90;99.90;;;;;;5138341;28;20238;-84
2022/12/12 08:55:52;;;;;;;12.13;4.40;;;-5.80;99.90;;;;;;5138797;28;20273;-84
2022/12/12 08:58:17;;;;;;;7.40;4.63;;;-5.90;99.90;;;;;;5139465;28;20175;-83
2022/12/12 09:00:43;;;;;;;6.50;4.20;;;-5.70;99.90;;;;;;5138376;28;20419;-83
2022/12/12 09:03:09;;;;;;;7.33;4.40;;;-5.80;99.90;;;;;;5127651;27;20214;-82
2022/12/12 09:05:35;;;;;;;11.23;4.93;;;-5.70;99.90;;;;;;5123973;28;20203;-83
2022/12/12 09:08:00;;;;;;;8.03;4.23;;;-5.50;99.90;;;;;;5123544;28;20195;-83
2022/12/12 09:10:27;;;;;;;8.37;4.50;;;-5.30;99.90;;;;;;5124530;28;20464;-83
2022/12/12 09:12:53;;;;;;;9.27;5.63;;;-4.90;99.90;;;;;;5123963;28;20247;-84
2022/12/12 09:15:19;;;;;;;7.67;6.03;;;-4.80;99.90;;;;;;5125617;28;20452;-84
2022/12/12 09:17:46;;;;;;;12.80;8.47;;;-4.60;99.90;;;;;;5132354;28;20414;-83
2022/12/12 09:20:11;;;;;;;8.60;5.87;;;-4.80;99.90;;;;;;5137407;28;20424;-83
2022/12/12 09:22:37;;;;;;;10.97;6.17;;;-4.70;99.90;;;;;;5136013;28;20421;-82
2022/12/12 09:25:05;;;;;;;6.83;5.77;;;-4.70;99.90;;;;;;5122176;28;20239;-83
2022/12/12 09:27:31;;;;;;;7.53;5.73;;;-4.60;99.90;;;;;;5122472;28;20520;-83
2022/12/12 09:29:56;;;;;;;11.83;6.90;;;-4.20;99.90;;;;;;5122479;28;20406;-82
2022/12/12 09:32:22;;;;;;;11.63;6.73;;;-4.10;99.90;;;;;;5123070;28;20750;-83
2022/12/12 09:34:48;;;;;;;10.17;6.23;;;-3.50;99.90;;;;;;5122907;28;20652;-83
2022/12/12 09:37:14;;;;;;;8.10;5.80;;;-2.80;99.90;;;;;;5124940;28;20647;-83
2022/12/12 09:39:39;;;;;;;7.20;6.00;;;-2.60;99.90;;;;;;5122975;28;20175;-83
2022/12/12 09:42:23;;;;;;;7.13;5.60;;;-2.50;99.90;;;;;;5122063;28;20211;-84
2022/12/12 09:45:08;;;;;;;7.50;5.53;;;-2.20;99.90;;;;;;5123767;28;20159;-83
2022/12/12 09:48:01;;;;;;;8.67;5.27;;;-2.30;99.90;;;;;;5125003;28;20390;-83
2022/12/12 09:50:44;;;;;;;6.57;5.20;;;-2.20;99.90;;;;;;5117377;28;20465;-83
2022/12/12 09:53:16;;;;;;;5.87;4.47;;;-1.70;99.90;;;;;;5121802;28;20402;-83
2022/12/12 09:56:31;;;;;;;7.77;4.67;;;-1.40;99.90;;;;;;5121254;28;20223;-82
2022/12/12 09:58:56;;;;;;;10.50;5.30;;;-1.50;99.90;;;;;;5050869;28;20188;-83
2022/12/12 10:01:30;;;;;;;9.23;5.70;;;-1.60;99.90;;;;;;5120706;28;20543;-83
2022/12/12 10:04:06;;;;;;;8.40;4.93;;;-1.70;99.90;;;;;;5122636;28;20185;-83
2022/12/12 10:06:48;;;;;;;7.03;4.60;;;-1.50;99.90;;;;;;5120530;28;20223;-82
2022/12/12 10:09:35;;;;;;;9.77;4.90;;;-1.40;99.90;;;;;;5122159;28;20181;-83
2022/12/12 10:12:04;;;;;;;9.70;5.97;;;-1.60;99.90;;;;;;5122102;28;20255;-84
2022/12/12 10:14:42;;;;;;;9.13;5.53;;;-1.50;99.90;;;;;;5122287;28;20256;-83
2022/12/12 10:17:31;;;;;;;7.23;5.00;;;-1.40;99.90;;;;;;5122395;28;20195;-83
2022/12/12 10:20:19;;;;;;;10.43;5.80;;;-1.20;99.90;;;;;;5122961;28;20215;-83
2022/12/12 10:23:04;;;;;;;10.27;5.40;;;-0.60;99.90;;;;;;5121480;28;20230;-83
2022/12/12 10:25:42;;;;;;;7.60;5.10;;;-0.30;99.90;;;;;;5123212;28;20191;-83
2022/12/12 10:28:11;;;;;;;10.17;5.20;;;-0.30;99.90;;;;;;5122099;28;20182;-83
2022/12/12 10:31:14;;;;;;;6.37;5.00;;;-0.30;99.90;;;;;;5122020;28;20291;-83
2022/12/12 10:33:59;;;;;;;11.67;5.97;;;-0.10;99.90;;;;;;5050752;28;20235;-83
2022/12/12 10:36:48;;;;;;;10.70;6.43;;;-0.20;99.90;;;;;;5122039;28;20221;-83
2022/12/12 10:39:20;;;;;;;9.70;6.10;;;-0.20;99.90;;;;;;5124637;28;20176;-83
2022/12/12 10:42:07;;;;;;;12.90;7.13;;;0.10;99.90;;;;;;5123573;28;20163;-83
2022/12/12 10:44:48;;;;;;;8.70;5.50;;;-0.10;99.90;;;;;;5122692;28;20634;-83
2022/12/12 10:47:13;;;;;;;9.53;6.77;;;-0.10;99.90;;;;;;5122203;28;20197;-83
2022/12/12 10:49:39;;;;;;;13.90;8.30;;;0.40;99.90;;;;;;5123488;28;20233;-83
2022/12/12 10:52:25;;;;;;;10.47;6.77;;;0.50;99.90;;;;;;5122798;28;20215;-84
2022/12/12 10:54:55;;;;;;;11.37;5.53;;;0.90;99.90;;;;;;5122671;28;20278;-84
2022/12/12 10:57:23;;;;;;;7.80;4.83;;;0.90;99.90;;;;;;5124939;28;20190;-84
2022/12/12 10:59:55;;;;;;;7.40;3.93;;;1.00;99.90;;;;;;5135253;28;20172;-82
2022/12/12 11:02:38;;;;;;;6.27;4.10;;;0.80;99.90;;;;;;5132512;28;20167;-82
2022/12/12 11:05:18;;;;;;;6.73;4.03;;;0.80;99.90;;;;;;5124524;28;20182;-83
2022/12/12 11:07:47;;;;;;;6.00;4.20;;;0.80;99.90;;;;;;5122861;28;20205;-83
2022/12/12 11:10:19;;;;;;;5.90;4.30;;;0.80;99.90;;;;;;5120581;28;20179;-83
2022/12/12 11:12:45;;;;;;;7.63;5.43;;;1.10;99.90;;;;;;5121575;28;20178;-83
2022/12/12 11:15:16;;;;;;;6.07;4.57;;;1.40;99.90;;;;;;5121461;28;20199;-83
2022/12/12 11:17:42;;;;;;;7.37;4.50;;;1.70;99.90;;;;;;5121620;28;20657;-83
2022/12/12 11:20:16;;;;;;;6.60;4.50;;;1.70;99.90;;;;;;5121257;28;20182;-84
2022/12/12 11:22:42;;;;;;;4.57;4.00;;;1.70;99.90;;;;;;5122044;28;20184;-83
2022/12/12 11:25:27;;;;;;;5.93;4.00;;;1.80;99.90;;;;;;5120487;28;20575;-82
2022/12/12 11:27:53;;;;;;;5.37;4.03;;;1.60;99.90;;;;;;5119085;28;20639;-83
2022/12/12 11:30:28;;;;;;;5.17;3.57;;;1.50;99.90;;;;;;5118590;28;20393;-83
2022/12/12 11:32:55;;;;;;;4.67;3.80;;;1.40;99.90;;;;;;5118177;28;20570;-83
2022/12/12 11:35:26;;;;;;;4.70;3.70;;;1.40;99.90;;;;;;5120881;28;20191;-83
2022/12/12 11:38:05;;;;;;;5.77;4.03;;;1.80;99.90;;;;;;5118692;28;20243;-83
2022/12/12 11:40:35;;;;;;;4.93;3.63;;;2.00;99.90;;;;;;5120859;28;20502;-83
2022/12/12 11:43:16;;;;;;;5.20;4.03;;;2.10;99.90;;;;;;5119941;28;20510;-83
2022/12/12 11:45:42;;;;;;;7.63;4.30;;;2.60;99.90;;;;;;5119430;28;20688;-83
2022/12/12 11:48:55;;;;;;;6.07;4.10;;;2.80;99.90;;;;;;5119397;28;20232;-83
2022/12/12 11:51:37;;;;;;;6.37;3.80;;;3.60;98.80;;;;;;5040657;28;20212;-84
2022/12/12 11:54:15;;;;;;;6.83;4.67;;;3.60;96.60;;;;;;5118648;28;20207;-84
2022/12/12 11:56:46;;;;;;;6.23;3.53;;;3.80;96.10;;;;;;5120227;28;20248;-83
2022/12/12 11:59:32;;;;;;;5.13;3.50;;;3.60;95.80;;;;;;5119800;28;20182;-83
2022/12/12 12:02:19;;;;;;;5.27;3.63;;;3.40;95.80;;;;;;5119046;28;20179;-84
2022/12/12 12:05:18;;;;;;;7.30;3.60;;;2.40;96.50;;;;;;5120316;28;20213;-82
2022/12/12 12:07:51;;;;;;;5.50;3.23;;;1.80;97.90;;;;;;5118513;28;20270;-83
2022/12/12 12:10:28;;;;;;;6.30;3.40;;;1.10;97.10;;;;;;5118831;28;20174;-83
2022/12/12 12:13:06;;;;;;;6.77;4.07;;;0.50;99.10;;;;;;5118024;28;20190;-82
2022/12/12 12:15:40;;;;;;;6.63;3.67;;;0.20;99.90;;;;;;5120323;28;20675;-82
2022/12/12 12:18:15;;;;;;;7.53;5.47;;;0.00;99.90;;;;;;5114897;28;20169;-82
2022/12/12 12:20:43;;;;;;;4.50;3.20;;;-0.20;99.90;;;;;;5118720;28;20171;-83
2022/12/12 12:23:15;;;;;;;5.83;3.70;;;-0.40;99.90;;;;;;5118610;28;20510;-83
2022/12/12 12:26:04;;;;;;;5.97;4.10;;;-0.60;99.90;;;;;;5119024;28;20448;-83
2022/12/12 12:28:30;;;;;;;5.73;3.20;;;-0.90;99.90;;;;;;5118370;28;20409;-83
2022/12/12 12:31:02;;;;;;;6.73;3.17;;;-1.10;99.90;;;;;;5118354;28;20646;-83
2022/12/12 12:33:33;;;;;;;4.70;3.10;;;-1.40;99.90;;;;;;5117866;28;20168;-83
2022/12/12 12:36:13;;;;;;;5.57;4.17;;;-1.40;99.90;;;;;;5117956;28;20429;-83
2022/12/12 12:38:55;;;;;;;4.00;3.60;;;-1.50;99.90;;;;;;5122849;28;20389;-83
2022/12/12 12:41:30;;;;;;;8.00;4.77;;;-1.60;99.90;;;;;;5121794;28;20547;-83
2022/12/12 12:43:58;;;;;;;3.33;2.80;;;-1.60;99.90;;;;;;5124029;28;20454;-83
2022/12/12 12:46:55;;;;;;;2.90;2.60;;;-1.60;99.90;;;;;;5122575;28;20435;-84
2022/12/12 12:49:27;;;;;;;2.30;2.10;;;-1.80;99.90;;;;;;5121816;28;20498;-83
2022/12/12 12:52:01;;;;;;;2.93;2.20;;;-1.80;99.90;;;;;;5124957;28;20464;-82
2022/12/12 12:54:38;;;;;;;3.37;2.37;;;-2.00;99.90;;;;;;5131146;28;20469;-82
2022/12/12 12:57:22;;;;;;;3.60;2.50;;;-1.90;99.90;;;;;;5133669;28;20488;-82
2022/12/12 12:59:52;;;;;;;3.00;2.67;;;-2.00;99.90;;;;;;5124056;28;20424;-83
2022/12/12 13:02:36;;;;;;;5.37;3.17;;;-2.00;99.90;;;;;;5121083;28;20417;-82
2022/12/12 13:05:23;;;;;;;3.40;2.47;;;-2.10;99.70;;;;;;5121150;28;20453;-82
2022/12/12 13:07:53;;;;;;;3.23;2.53;;;-2.10;99.50;;;;;;5121730;28;20401;-84
2022/12/12 13:10:30;;;;;;;3.13;2.83;;;-2.20;99.80;;;;;;5124274;28;20417;-83
2022/12/12 13:13:33;;;;;;;2.87;2.10;;;-2.20;99.90;;;;;;5123113;28;20420;-83
2022/12/12 13:16:07;;;;;;;2.67;2.10;;;-2.20;99.90;;;;;;5091743;28;20433;-83
2022/12/12 13:18:35;;;;;;;4.60;2.60;;;-2.20;99.90;;;;;;5122162;28;20976;-83
2022/12/12 13:21:13;;;;;;;3.33;2.43;;;-2.10;99.90;;;;;;5124323;28;20412;-82
2022/12/12 13:24:09;;;;;;;4.23;2.30;;;-2.30;99.90;;;;;;5124192;28;20416;-82
2022/12/12 13:26:54;;;;;;;4.50;2.50;;;-2.20;98.50;;;;;;5123410;28;20455;-83
2022/12/12 13:29:22;;;;;;;2.70;1.97;;;;;;;;;;5123735;28;20406;-83
2022/12/12 13:31:48;;;;;;;3.20;2.47;;;;;;;;;;5124329;28;20974;-83
2022/12/12 13:34:22;;;;;;;3.30;2.27;;;-2.40;99.90;;;;;;5122684;28;20486;-82
2022/12/12 13:36:51;;;;;;;3.97;2.50;;;-2.50;99.90;;;;;;5124516;28;20433;-81
2022/12/12 13:39:31;;;;;;;4.67;2.30;;;-2.80;99.90;;;;;;5130562;28;20413;-82
2022/12/12 13:42:00;;;;;;;5.03;2.27;;;-2.90;99.40;;;;;;5120866;28;20471;-83
2022/12/12 13:44:37;;;;;;;2.87;2.43;;;-2.90;99.90;;;;;;5121936;28;20409;-83
2022/12/12 13:47:21;;;;;;;2.90;2.27;;;-2.80;99.90;;;;;;5118286;28;20448;-83
2022/12/12 13:50:14;;;;;;;2.77;2.40;;;-2.80;99.90;;;;;;5119284;28;20494;-82
2022/12/12 13:52:41;;;;;;;3.77;2.10;;;-2.80;99.90;;;;;;5119766;28;20467;-83
2022/12/12 13:55:13;;;;;;;6.17;1.97;;;-2.90;99.90;;;;;;5119922;28;20431;-83
2022/12/12 13:57:57;;;;;;;2.90;2.17;;;-2.90;99.90;;;;;;5119024;28;20411;-83
2022/12/12 14:00:40;;;;;;;2.83;2.10;;;-3.00;99.90;;;;;;5119799;28;20449;-83
2022/12/12 14:03:26;;;;;;;6.20;3.17;;;-3.00;99.90;;;;;;5119341;28;20419;-83
2022/12/12 14:05:52;;;;;;;2.90;2.33;;;-3.00;99.90;;;;;;5119725;28;20457;-83
2022/12/12 14:08:45;;;;;;;4.33;3.00;;;-3.10;99.90;;;;;;5119513;28;20416;-83
2022/12/12 14:11:25;;;;;;;4.67;3.30;;;-3.10;99.90;;;;;;5119993;28;20449;-82
2022/12/12 14:14:20;;;;;;;4.53;3.03;;;-3.10;99.90;;;;;;5120986;28;20397;-83
2022/12/12 14:16:54;;;;;;;8.60;5.00;;;-3.20;99.90;;;;;;5119041;28;20440;-83
2022/12/12 14:19:34;;;;;;;5.27;3.57;;;-3.30;99.90;;;;;;5119616;28;20416;-83
2022/12/12 14:22:00;;;;;;;6.73;3.60;;;;;;;;;;5119236;28;20416;-83
2022/12/12 14:24:31;;;;;;;9.43;3.23;;;-3.30;99.90;;;;;;5121868;28;20866;-82
2022/12/12 14:27:02;;;;;;;6.20;3.47;;;-3.40;99.90;;;;;;5120481;28;20516;-83
2022/12/12 14:29:31;;;;;;;12.87;3.80;;;-3.50;99.90;;;;;;5121271;28;20416;-82
2022/12/12 14:32:11;;;;;;;5.10;3.43;;;-3.40;99.90;;;;;;5119770;28;20854;-84
2022/12/12 14:34:55;;;;;;;7.03;3.93;;;-3.50;99.90;;;;;;5122010;28;20385;-83
2022/12/12 14:37:39;;;;;;;14.90;4.03;;;-3.50;99.90;;;;;;5123062;28;20412;-83
2022/12/12 14:40:19;;;;;;;5.33;3.70;;;-3.50;99.90;;;;;;5127601;28;20433;-83
2022/12/12 14:43:00;;;;;;;5.30;3.87;;;-2.50;99.90;;;;;;5128955;28;20429;-83
2022/12/12 14:45:50;;;;;;;8.23;3.33;;;-3.00;99.90;;;;;;5126757;28;20439;-83
2022/12/12 14:48:25;;;;;;;7.27;4.00;;;-3.60;99.90;;;;;;5121371;28;20406;-83
2022/12/12 14:51:09;;;;;;;9.13;3.93;;;-3.80;99.90;;;;;;5122428;28;20464;-83
2022/12/12 14:53:42;;;;;;;8.03;4.33;;;-3.70;99.90;;;;;;5120408;28;20405;-83
2022/12/12 14:56:20;;;;;;;10.87;4.93;;;-3.70;99.90;;;;;;5120218;28;20767;-83
2022/12/12 14:58:54;;;;;;;8.90;5.17;;;-3.70;99.90;;;;;;5121263;28;20440;-83
2022/12/12 15:01:43;;;;;;;14.17;5.60;;;-3.70;99.90;;;;;;5121751;28;20392;-83
2022/12/12 15:04:18;;;;;;;12.13;5.70;;;-3.60;99.90;;;;;;5120897;28;20417;-83
2022/12/12 15:06:49;;;;;;;7.10;4.63;;;-3.40;99.90;;;;;;5121834;28;20434;-83
2022/12/12 15:09:25;;;;;;;12.23;6.70;;;-3.50;99.90;;;;;;5120676;28;20418;-83
2022/12/12 15:11:53;;;;;;;9.30;4.97;;;-3.40;99.90;;;;;;5123457;28;20481;-83
2022/12/12 15:14:25;;;;;;;9.33;4.77;;;-3.50;99.90;;;;;;5124167;28;20397;-83
2022/12/12 15:17:18;;;;;;;6.37;3.97;;;-3.50;99.90;;;;;;5124023;28;20486;-83
2022/12/12 15:19:50;;;;;;;8.40;4.07;;;-3.70;99.90;;;;;;5122967;28;20411;-83
2022/12/12 15:22:31;;;;;;;10.00;4.20;;;-3.80;99.90;;;;;;5121976;28;20429;-82
2022/12/12 15:25:00;;;;;;;7.17;4.03;;;-3.80;99.90;;;;;;5121181;28;20405;-83
2022/12/12 15:27:31;;;;;;;13.20;4.67;;;-3.90;99.90;;;;;;5123266;28;20409;-83
2022/12/12 15:29:59;;;;;;;7.10;4.13;;;-4.00;99.90;;;;;;5121498;28;20420;-83
2022/12/12 15:32:26;;;;;;;7.07;4.30;;;-4.10;99.90;;;;;;5121752;28;20529;-83
2022/12/12 15:35:16;;;;;;;7.67;4.83;;;-4.10;99.90;;;;;;5121896;28;20504;-83
2022/12/12 15:37:42;;;;;;;12.33;6.07;;;;;;;;;;5122824;28;20392;-83
2022/12/12 15:40:10;;;;;;;10.10;5.57;;;-4.20;99.90;;;;;;5122710;28;20403;-83
2022/12/12 15:42:42;;;;;;;14.80;7.90;;;-4.20;99.90;;;;;;5122209;28;20427;-83
2022/12/12 15:45:17;;;;;;;13.60;7.50;;;-4.30;99.90;;;;;;5122240;28;20960;-83
2022/12/12 15:47:43;;;;;;;12.53;8.20;;;;;;;;;;5123295;28;20390;-83
2022/12/12 15:50:18;;;;;;;11.90;5.90;;;-4.40;99.90;;;;;;5123378;28;20405;-83
2022/12/12 15:52:46;;;;;;;10.73;5.50;;;-4.60;99.90;;;;;;5123361;28;20875;-83
2022/12/12 15:55:19;;;;;;;8.60;4.97;;;-4.60;99.90;;;;;;5121668;28;20441;-83
2022/12/12 15:57:48;;;;;;;11.53;5.93;;;-4.70;99.90;;;;;;5122708;28;20410;-83
2022/12/12 16:00:33;;;;;;;9.10;5.20;;;-4.80;99.90;;;;;;5122053;28;20419;-83
2022/12/12 16:03:19;;;;;;;11.60;5.00;;;-4.80;99.90;;;;;;5124191;28;20748;-83
2022/12/12 16:05:57;;;;;;;10.37;5.40;;;-4.90;99.90;;;;;;5122959;28;20468;-83
2022/12/12 16:08:45;;;;;;;9.07;5.73;;;-4.80;99.90;;;;;;5128110;28;20403;-82
2022/12/12 16:11:37;;;;;;;15.30;6.67;;;-5.00;99.90;;;;;;5131809;28;20527;-82
2022/12/12 16:14:05;;;;;;;17.67;6.50;;;-5.00;99.90;;;;;;5124599;28;20399;-81
2022/12/12 16:16:40;;;;;;;12.50;5.30;;;-5.00;99.90;;;;;;5124555;28;20442;-82
2022/12/12 16:19:25;;;;;;;10.23;6.53;;;-5.10;99.90;;;;;;5124450;28;20511;-82
2022/12/12 16:21:51;;;;;;;8.67;5.40;;;-5.20;99.90;;;;;;5126537;28;20425;-81
2022/12/12 16:24:24;;;;;;;8.57;5.63;;;-2.80;99.90;;;;;;5123828;28;20429;-82
2022/12/12 16:26:50;;;;;;;11.73;5.10;;;;;;;;;;5125055;28;20224;-82
2022/12/12 16:29:16;;;;;;;9.73;5.13;;;-5.40;99.90;;;;;;5122873;28;20411;-81
2022/12/12 16:31:43;;;;;;;7.83;4.60;;;-5.40;99.90;;;;;;5125785;28;20449;-81
2022/12/12 16:34:09;;;;;;;8.73;5.43;;;-2.90;99.90;;;;;;5124212;28;20329;-82
2022/12/12 16:36:35;;;;;;;9.20;5.73;;;-5.50;99.90;;;;;;5125825;28;20425;-81
2022/12/12 16:39:00;;;;;;;7.63;4.87;;;-4.00;99.90;;;;;;5122878;28;20829;-81
2022/12/12 16:41:26;;;;;;;22.83;9.67;;;;;;;;;;5125031;28;20178;-82
2022/12/12 16:43:52;;;;;;;11.53;6.50;;;-5.60;99.90;;;;;;5121476;28;20181;-81
2022/12/12 16:46:23;;;;;;;12.77;5.97;;;-5.60;99.90;;;;;;5122970;28;20466;-81
2022/12/12 16:48:49;;;;;;;13.30;6.03;;;-5.70;99.90;;;;;;5122687;28;20540;-81
2022/12/12 16:51:25;;;;;;;8.93;5.20;;;-5.60;99.90;;;;;;5123942;28;20470;-81
2022/12/12 16:53:50;;;;;;;11.77;5.73;;;-5.70;99.90;;;;;;5121577;28;20412;-82
2022/12/12 16:56:16;;;;;;;11.10;5.10;;;-5.70;99.90;;;;;;5121591;28;20558;-82
2022/12/12 16:58:42;;;;;;;11.50;6.27;;;-5.80;99.90;;;;;;5124180;28;20174;-81
2022/12/12 17:01:08;;;;;;;18.77;8.77;;;-4.10;99.90;;;;;;5122127;28;20188;-81
2022/12/12 17:03:34;;;;;;;19.00;9.03;;;;;;;;;;5121847;28;20181;-81
2022/12/12 17:06:00;;;;;;;13.67;7.47;;;;;;;;;;5122511;28;20437;-81
2022/12/12 17:08:27;;;;;;;14.57;7.07;;;;;;;;;;5122224;28;21022;-81
2022/12/12 17:10:53;;;;;;;15.77;7.03;;;-6.00;99.90;;;;;;5121844;28;20458;-81
2022/12/12 17:13:22;;;;;;;14.77;7.97;;;-6.20;99.90;;;;;;5124455;28;20408;-81
